createdAt,value
2023-05-22T00:01:51.857Z,98627.84
2023-05-22T00:04:38.438Z,98620.09
2023-05-22T00:07:24.774Z,98635.69
2023-05-22T00:10:11.496Z,98633.19
2023-05-22T00:12:58.054Z,98626.25
2023-05-22T00:15:44.643Z,98635.47
2023-05-22T00:18:31.157Z,98636.25
2023-05-22T00:21:17.744Z,98626.28
2023-05-22T00:24:04.511Z,98629.03
2023-05-22T00:26:50.814Z,98616.41
2023-05-22T00:29:37.584Z,98631.03
2023-05-22T00:32:25.815Z,98613.88
2023-05-22T00:35:12.475Z,98630.28
2023-05-22T00:37:59.387Z,98599.53
2023-05-22T00:40:46.135Z,98625.34
2023-05-22T00:43:33.426Z,98605.59
2023-05-22T00:46:21.592Z,98595.34
2023-05-22T00:49:08.407Z,98618.53
2023-05-22T00:51:55.183Z,98622.81
2023-05-22T00:54:43.328Z,98616.03
2023-05-22T00:57:31.509Z,98629.78
2023-05-22T01:00:18.674Z,98607.53
2023-05-22T01:03:07.907Z,98590.38
2023-05-22T01:05:55.082Z,98611.88
2023-05-22T01:08:42.330Z,98622.25
2023-05-22T01:11:42.528Z,98630.00
2023-05-22T01:15:05.150Z,98637.81
2023-05-22T01:18:19.644Z,98628.41
2023-05-22T01:21:31.085Z,98628.28
2023-05-22T01:24:36.155Z,98567.50
2023-05-22T01:27:42.730Z,98608.78
2023-05-22T01:30:50.090Z,98631.16
2023-05-22T01:33:48.932Z,98616.59
2023-05-22T01:36:37.054Z,98620.03
2023-05-22T01:39:25.487Z,98590.09
2023-05-22T01:42:12.705Z,98610.72
2023-05-22T01:44:59.297Z,98643.38
2023-05-22T01:47:45.698Z,98610.88
2023-05-22T01:50:34.333Z,98606.53
2023-05-22T01:53:51.962Z,98621.91
2023-05-22T01:56:54.904Z,98650.31
2023-05-22T02:00:05.940Z,98619.47
2023-05-22T02:03:08.750Z,98627.25
2023-05-22T02:05:58.497Z,98623.91
2023-05-22T02:08:45.172Z,98630.78
2023-05-22T02:11:33.111Z,98631.69
2023-05-22T02:14:20.265Z,98618.84
2023-05-22T02:17:07.712Z,98625.78
2023-05-22T02:19:53.880Z,98620.63
2023-05-22T02:22:47.095Z,98647.25
2023-05-22T02:25:33.513Z,98629.22
2023-05-22T02:28:20.162Z,98589.78
2023-05-22T02:31:06.872Z,98617.28
2023-05-22T02:33:53.348Z,98605.28
2023-05-22T02:36:40.899Z,98653.41
2023-05-22T02:39:27.574Z,98639.66
2023-05-22T02:42:14.285Z,98652.59
2023-05-22T02:45:01.309Z,98632.09
2023-05-22T02:47:47.925Z,98635.59
2023-05-22T02:50:34.688Z,98657.97
2023-05-22T02:53:22.616Z,98642.56
2023-05-22T02:56:13.284Z,98662.34
2023-05-22T02:58:59.696Z,98628.88
2023-05-22T03:01:48.387Z,98664.94
2023-05-22T03:04:38.297Z,98646.13
2023-05-22T03:07:26.379Z,98650.38
2023-05-22T03:10:12.843Z,98620.38
2023-05-22T03:13:00.197Z,98641.03
2023-05-22T03:15:46.645Z,98647.06
2023-05-22T03:18:36.302Z,98644.47
2023-05-22T03:21:22.765Z,98650.50
2023-05-22T03:24:09.067Z,98666.88
2023-05-22T03:26:55.995Z,98643.75
2023-05-22T03:29:54.454Z,98633.44
2023-05-22T03:32:41.759Z,98656.69
2023-05-22T03:35:28.100Z,98652.41
2023-05-22T03:38:14.627Z,98665.25
2023-05-22T03:41:01.688Z,98646.38
2023-05-22T03:43:48.285Z,98657.50
2023-05-22T03:46:35.054Z,98638.59
2023-05-22T03:49:21.891Z,98641.16
2023-05-22T03:52:10.406Z,98647.13
2023-05-22T03:54:57.223Z,98656.50
2023-05-22T03:57:43.727Z,98648.75
2023-05-22T04:00:31.740Z,98658.97
2023-05-22T04:03:19.842Z,98650.31
2023-05-22T04:06:07.407Z,98665.75
2023-05-22T04:08:53.906Z,98665.66
2023-05-22T04:11:42.172Z,98675.97
2023-05-22T04:14:28.876Z,98665.59
2023-05-22T04:17:15.585Z,98686.16
2023-05-22T04:20:02.027Z,98693.00
2023-05-22T04:22:48.902Z,98655.97
2023-05-22T04:25:36.414Z,98672.22
2023-05-22T04:28:23.002Z,98694.56
2023-05-22T04:31:09.243Z,98670.41
2023-05-22T04:33:56.304Z,98696.94
2023-05-22T04:36:45.111Z,98683.09
2023-05-22T04:39:31.796Z,98655.34
2023-05-22T04:42:18.266Z,98684.22
2023-05-22T04:45:05.811Z,98695.13
2023-05-22T04:47:56.189Z,98707.91
2023-05-22T04:50:46.272Z,98702.72
2023-05-22T04:53:33.607Z,98711.09
2023-05-22T04:56:31.810Z,98709.03
2023-05-22T04:59:26.516Z,98715.72
2023-05-22T05:02:13.443Z,98645.13
2023-05-22T05:04:59.660Z,98702.75
2023-05-22T05:07:49.965Z,98690.13
2023-05-22T05:10:36.783Z,98697.88
2023-05-22T05:13:23.594Z,98689.50
2023-05-22T05:16:10.163Z,98688.75
2023-05-22T05:18:57.004Z,98710.53
2023-05-22T05:21:43.669Z,98704.19
2023-05-22T05:24:30.256Z,98688.19
2023-05-22T05:27:17.200Z,98689.16
2023-05-22T05:30:05.242Z,98679.59
2023-05-22T05:33:03.919Z,98707.91
2023-05-22T05:35:54.870Z,98708.88
2023-05-22T05:38:44.015Z,98708.13
2023-05-22T05:41:31.708Z,98700.81
2023-05-22T05:44:23.412Z,98697.88
2023-05-22T05:47:11.173Z,98707.56
2023-05-22T05:49:58.149Z,98697.06
2023-05-22T05:52:48.256Z,98685.59
2023-05-22T05:55:37.556Z,98648.09
2023-05-22T05:58:24.081Z,98705.00
2023-05-22T06:01:44.531Z,98715.09
2023-05-22T06:04:37.066Z,98699.78
2023-05-22T06:07:24.872Z,98695.56
2023-05-22T06:10:14.238Z,98700.81
2023-05-22T06:13:10.637Z,98714.06
2023-05-22T06:16:01.191Z,98705.19
2023-05-22T06:18:49.621Z,98697.63
2023-05-22T06:21:36.203Z,98724.03
2023-05-22T06:24:23.039Z,98716.34
2023-05-22T06:27:09.849Z,98704.38
2023-05-22T06:29:56.942Z,98728.59
2023-05-22T06:32:46.968Z,98702.81
2023-05-22T06:35:34.243Z,98728.66
2023-05-22T06:38:20.877Z,98713.78
2023-05-22T06:41:08.024Z,98719.16
2023-05-22T06:43:54.472Z,98701.19
2023-05-22T06:46:47.529Z,98696.97
2023-05-22T06:49:40.101Z,98716.00
2023-05-22T06:52:26.733Z,98723.25
2023-05-22T06:55:15.016Z,98694.13
2023-05-22T06:58:17.262Z,98722.66
2023-05-22T07:01:04.078Z,98721.81
2023-05-22T07:04:01.401Z,98720.41
2023-05-22T07:07:05.353Z,98711.81
2023-05-22T07:09:52.306Z,98726.88
2023-05-22T07:12:39.027Z,98711.13
2023-05-22T07:15:25.746Z,98723.50
2023-05-22T07:18:15.185Z,98713.00
2023-05-22T07:21:02.617Z,98728.75
2023-05-22T07:23:49.912Z,98747.72
2023-05-22T07:26:37.735Z,98738.09
2023-05-22T07:29:28.937Z,98733.81
2023-05-22T07:32:17.410Z,98729.94
2023-05-22T07:35:05.690Z,98703.31
2023-05-22T07:37:53.863Z,98730.53
2023-05-22T07:40:42.097Z,98729.81
2023-05-22T07:43:28.724Z,98722.22
2023-05-22T07:46:16.730Z,98736.88
2023-05-22T07:49:19.512Z,98676.00
2023-05-22T07:52:07.007Z,98737.38
2023-05-22T07:54:53.783Z,98731.09
2023-05-22T07:57:40.585Z,98720.44
2023-05-22T08:00:38.451Z,98704.06
2023-05-22T08:03:25.179Z,98736.22
2023-05-22T08:06:12.606Z,98718.88
2023-05-22T08:09:00.053Z,98735.50
2023-05-22T08:11:46.438Z,98721.25
2023-05-22T08:14:33.385Z,98733.50
2023-05-22T08:17:19.734Z,98694.16
2023-05-22T08:20:07.326Z,98723.44
2023-05-22T08:22:54.485Z,98722.34
2023-05-22T08:25:41.264Z,98703.91
2023-05-22T08:28:27.673Z,98720.06
2023-05-22T08:31:14.636Z,98706.47
2023-05-22T08:34:02.899Z,98720.09
2023-05-22T08:36:49.925Z,98718.16
2023-05-22T08:39:36.446Z,98715.44
2023-05-22T08:42:23.015Z,98706.16
2023-05-22T08:45:09.894Z,98706.63
2023-05-22T08:47:58.889Z,98706.69
2023-05-22T08:50:48.600Z,98678.97
2023-05-22T08:53:36.670Z,98701.59
2023-05-22T08:56:24.330Z,98687.75
2023-05-22T08:59:11.959Z,98690.44
2023-05-22T09:01:58.638Z,98701.22
2023-05-22T09:04:45.115Z,98695.03
2023-05-22T09:07:31.494Z,98701.69
2023-05-22T09:10:17.987Z,98707.19
2023-05-22T09:13:09.365Z,98708.31
2023-05-22T09:16:09.933Z,98651.63
2023-05-22T09:18:57.220Z,98699.06
2023-05-22T09:21:48.094Z,98694.41
2023-05-22T09:24:40.366Z,98692.16
2023-05-22T09:27:27.174Z,98695.91
2023-05-22T09:30:20.257Z,98706.63
2023-05-22T09:33:08.797Z,98644.41
2023-05-22T09:35:55.789Z,98699.03
2023-05-22T09:38:42.113Z,98699.22
2023-05-22T09:41:30.499Z,98702.81
2023-05-22T09:44:17.045Z,98687.88
2023-05-22T09:47:04.709Z,98703.38
2023-05-22T09:49:51.036Z,98694.38
2023-05-22T09:52:37.819Z,98702.25
2023-05-22T09:55:26.377Z,98697.06
2023-05-22T09:58:17.889Z,98691.38
2023-05-22T10:01:04.729Z,98689.25
2023-05-22T10:03:55.179Z,98681.09
2023-05-22T10:06:45.050Z,98697.00
2023-05-22T10:17:31.956Z,98696.19
2023-05-22T10:20:19.158Z,98684.09
2023-05-22T10:23:06.175Z,98683.81
2023-05-22T10:25:53.595Z,98692.00
2023-05-22T10:28:47.959Z,98680.31
2023-05-22T10:31:44.162Z,98688.06
2023-05-22T10:35:24.862Z,98695.69
2023-05-22T10:38:31.766Z,98692.34
2023-05-22T10:41:18.755Z,98673.16
2023-05-22T10:44:05.119Z,98668.81
2023-05-22T10:46:51.581Z,98679.78
2023-05-22T10:49:41.145Z,98667.09
2023-05-22T10:52:27.864Z,98657.56
2023-05-22T10:55:14.328Z,98655.72
2023-05-22T10:58:13.301Z,98667.53
2023-05-22T11:01:19.819Z,98649.25
2023-05-22T11:04:15.929Z,98664.81
2023-05-22T11:07:07.685Z,98664.91
2023-05-22T11:10:00.573Z,98665.94
2023-05-22T11:12:47.331Z,98653.84
2023-05-22T11:15:33.989Z,98654.25
2023-05-22T11:18:20.582Z,98654.88
2023-05-22T11:21:10.086Z,98655.81
2023-05-22T11:24:00.912Z,98626.72
2023-05-22T11:27:07.448Z,98640.50
2023-05-22T11:29:54.698Z,98615.06
2023-05-22T11:32:45.990Z,98631.78
2023-05-22T11:35:32.464Z,98650.25
2023-05-22T11:38:20.127Z,98612.63
2023-05-22T11:41:09.944Z,98623.31
2023-05-22T11:43:56.243Z,98643.50
2023-05-22T11:46:43.208Z,98636.59
2023-05-22T11:49:29.561Z,98583.63
2023-05-22T11:52:16.644Z,98618.06
2023-05-22T11:55:07.947Z,98613.31
2023-05-22T11:57:55.489Z,98608.53
2023-05-22T12:00:43.207Z,98606.81
2023-05-22T12:03:30.829Z,98610.53
2023-05-22T12:06:18.177Z,98596.56
2023-05-22T12:09:04.409Z,98602.06
2023-05-22T12:11:50.811Z,98610.22
2023-05-22T12:14:38.114Z,98597.19
2023-05-22T12:17:24.682Z,98612.97
2023-05-22T12:20:13.909Z,98610.22
2023-05-22T12:23:00.165Z,98599.13
2023-05-22T12:25:46.943Z,98608.84
2023-05-22T12:28:33.587Z,98608.91
2023-05-22T12:31:22.049Z,98592.50
2023-05-22T12:34:08.772Z,98604.56
2023-05-22T12:36:55.505Z,98606.00
2023-05-22T12:39:53.474Z,98613.50
2023-05-22T12:42:40.117Z,98589.81
2023-05-22T12:45:26.614Z,98604.31
2023-05-22T12:48:13.247Z,98616.41
2023-05-22T12:50:59.875Z,98605.28
2023-05-22T12:53:46.437Z,98605.41
2023-05-22T12:56:32.982Z,98601.91
2023-05-22T12:59:20.736Z,98591.13
2023-05-22T13:02:07.880Z,98592.94
2023-05-22T13:04:54.211Z,98582.19
2023-05-22T13:07:40.732Z,98586.84
2023-05-22T13:10:27.348Z,98592.94
2023-05-22T13:13:14.030Z,98591.53
2023-05-22T13:16:00.447Z,98579.16
2023-05-22T13:18:47.252Z,98580.94
2023-05-22T13:21:34.152Z,98589.34
2023-05-22T13:24:20.630Z,98596.59
2023-05-22T13:27:07.317Z,98580.41
2023-05-22T13:29:53.732Z,98570.38
2023-05-22T13:32:40.068Z,98549.56
2023-05-22T13:35:26.859Z,98568.13
2023-05-22T13:38:13.465Z,98563.78
2023-05-22T13:41:00.121Z,98564.34
2023-05-22T13:43:46.873Z,98561.31
2023-05-22T13:46:33.581Z,98547.03
2023-05-22T13:49:20.412Z,98549.75
2023-05-22T13:52:06.668Z,98549.16
2023-05-22T13:54:52.877Z,98570.94
2023-05-22T13:57:40.611Z,98562.84
2023-05-22T14:00:27.157Z,98556.09
2023-05-22T14:03:17.599Z,98584.00
2023-05-22T14:06:04.645Z,98577.97
2023-05-22T14:08:51.225Z,98567.19
2023-05-22T14:11:37.912Z,98586.84
2023-05-22T14:14:24.858Z,98568.25
2023-05-22T14:17:11.671Z,98573.81
2023-05-22T14:19:59.087Z,98542.00
2023-05-22T14:22:56.596Z,98563.53
2023-05-22T14:25:44.559Z,98564.75
2023-05-22T14:28:32.207Z,98538.56
2023-05-22T14:31:18.805Z,98575.78
2023-05-22T14:34:05.422Z,98587.78
2023-05-22T14:36:51.819Z,98575.69
2023-05-22T14:39:38.370Z,98545.94
2023-05-22T14:42:24.668Z,98551.13
2023-05-22T14:45:11.557Z,98573.88
2023-05-22T14:47:57.866Z,98551.84
2023-05-22T14:50:45.123Z,98576.75
2023-05-22T14:53:31.441Z,98565.72
2023-05-22T14:56:18.113Z,98575.06
2023-05-22T14:59:04.491Z,98575.91
2023-05-22T15:01:52.039Z,98581.91
2023-05-22T15:04:38.824Z,98571.19
2023-05-22T15:07:39.648Z,98525.28
2023-05-22T15:10:29.970Z,98584.47
2023-05-22T15:13:16.557Z,98557.03
2023-05-22T15:16:03.179Z,98561.59
2023-05-22T15:18:49.692Z,98575.44
2023-05-22T15:21:36.643Z,98551.72
2023-05-22T15:24:23.116Z,98566.44
2023-05-22T15:27:12.442Z,98550.88
2023-05-22T15:29:59.097Z,98518.69
2023-05-22T15:32:45.560Z,98528.56
2023-05-22T15:35:32.577Z,98545.47
2023-05-22T15:38:20.098Z,98525.59
2023-05-22T15:41:06.576Z,98514.09
2023-05-22T15:43:53.391Z,98557.50
2023-05-22T15:46:39.595Z,98545.81
2023-05-22T15:49:27.455Z,98555.94
2023-05-22T15:52:16.239Z,98542.69
2023-05-22T15:55:02.805Z,98541.00
2023-05-22T15:57:49.381Z,98526.63
2023-05-22T16:00:40.914Z,98548.75
2023-05-22T16:03:27.479Z,98558.88
2023-05-22T16:06:14.120Z,98552.84
2023-05-22T16:09:00.723Z,98505.34
2023-05-22T16:11:47.282Z,98559.63
2023-05-22T16:14:33.700Z,98557.19
2023-05-22T16:17:20.170Z,98554.50
2023-05-22T16:20:08.483Z,98557.16
2023-05-22T16:22:55.269Z,98531.38
2023-05-22T16:25:41.950Z,98533.97
2023-05-22T16:28:28.635Z,98528.06
2023-05-22T16:31:19.284Z,98537.94
2023-05-22T16:34:06.082Z,98540.81
2023-05-22T16:36:52.694Z,98534.69
2023-05-22T16:39:41.245Z,98522.47
2023-05-22T16:42:27.775Z,98535.25
2023-05-22T16:45:14.365Z,98549.50
2023-05-22T16:48:00.825Z,98563.63
2023-05-22T16:50:47.616Z,98555.47
2023-05-22T16:53:36.083Z,98574.13
2023-05-22T16:56:23.908Z,98583.22
2023-05-22T16:59:10.437Z,98584.69
2023-05-22T17:01:57.150Z,98580.50
2023-05-22T17:04:43.622Z,98608.31
2023-05-22T17:07:33.449Z,98612.63
2023-05-22T17:10:20.096Z,98618.63
2023-05-22T17:13:06.835Z,98624.59
2023-05-22T17:15:53.477Z,98625.59
2023-05-22T17:18:40.488Z,98642.38
2023-05-22T17:21:27.558Z,98674.03
2023-05-22T17:24:14.886Z,98641.16
2023-05-22T17:27:03.348Z,98644.34
2023-05-22T17:29:50.053Z,98661.59
2023-05-22T17:32:36.376Z,98653.94
2023-05-22T17:35:22.639Z,98659.38
2023-05-22T17:38:09.204Z,98678.59
2023-05-22T17:40:55.910Z,98655.59
2023-05-22T17:43:42.378Z,98680.22
2023-05-22T17:46:28.906Z,98668.03
2023-05-22T17:49:15.542Z,98653.34
2023-05-22T17:52:02.072Z,98657.03
2023-05-22T17:54:49.856Z,98657.09
2023-05-22T17:57:36.447Z,98650.41
2023-05-22T18:00:23.124Z,98660.38
2023-05-22T18:03:09.397Z,98659.91
2023-05-22T18:05:56.100Z,98650.06
2023-05-22T18:08:42.799Z,98640.78
2023-05-22T18:11:29.138Z,98647.78
2023-05-22T18:14:15.772Z,98646.94
2023-05-22T18:17:01.988Z,98640.66
2023-05-22T18:19:48.673Z,98625.72
2023-05-22T18:22:37.175Z,98636.59
2023-05-22T18:25:24.034Z,98643.53
2023-05-22T18:28:10.617Z,98639.91
2023-05-22T18:30:57.249Z,98647.41
2023-05-22T18:33:46.686Z,98650.47
2023-05-22T18:36:33.965Z,98648.88
2023-05-22T18:39:20.637Z,98647.19
2023-05-22T18:42:07.220Z,98639.22
2023-05-22T18:44:53.576Z,98635.50
2023-05-22T18:47:40.089Z,98646.84
2023-05-22T18:50:27.108Z,98663.38
2023-05-22T18:53:13.291Z,98657.38
2023-05-22T18:55:59.948Z,98658.38
2023-05-22T18:58:46.552Z,98659.22
2023-05-22T19:01:33.038Z,98648.41
2023-05-22T19:04:19.720Z,98655.38
2023-05-22T19:07:06.330Z,98647.56
2023-05-22T19:09:52.937Z,98653.00
2023-05-22T19:12:39.290Z,98659.97
2023-05-22T19:15:26.005Z,98672.84
2023-05-22T19:18:12.270Z,98681.34
2023-05-22T19:20:59.689Z,98682.47
2023-05-22T19:23:46.329Z,98687.09
2023-05-22T19:26:32.916Z,98689.13
2023-05-22T19:29:19.497Z,98687.59
2023-05-22T19:32:06.270Z,98695.53
2023-05-22T19:34:52.532Z,98702.63
2023-05-22T19:37:38.832Z,98703.56
2023-05-22T19:40:25.136Z,98689.13
2023-05-22T19:43:11.729Z,98702.19
2023-05-22T19:45:58.385Z,98718.56
2023-05-22T19:48:44.952Z,98701.00
2023-05-22T19:51:32.075Z,98718.94
2023-05-22T19:54:18.302Z,98717.31
2023-05-22T19:57:04.737Z,98717.59
2023-05-22T19:59:51.308Z,98722.81
2023-05-22T20:02:38.502Z,98718.53
2023-05-22T20:05:25.991Z,98722.06
2023-05-22T20:08:12.600Z,98719.59
2023-05-22T20:10:58.821Z,98726.81
2023-05-22T20:13:45.206Z,98720.94
2023-05-22T20:16:31.814Z,98743.44
2023-05-22T20:19:18.835Z,98743.72
2023-05-22T20:22:05.497Z,98751.34
2023-05-22T20:24:52.602Z,98752.28
2023-05-22T20:27:39.478Z,98762.16
2023-05-22T20:30:25.833Z,98759.00
2023-05-22T20:33:12.355Z,98743.69
2023-05-22T20:35:58.938Z,98757.72
2023-05-22T20:38:46.150Z,98769.06
2023-05-22T20:41:33.745Z,98764.78
2023-05-22T20:44:23.463Z,98783.06
2023-05-22T20:47:09.865Z,98786.22
2023-05-22T20:49:56.449Z,98801.72
2023-05-22T20:52:45.824Z,98800.06
2023-05-22T20:55:33.567Z,98804.63
2023-05-22T20:58:20.126Z,98802.09
2023-05-22T21:01:06.734Z,98783.38
2023-05-22T21:03:56.254Z,98804.09
2023-05-22T21:06:42.707Z,98798.13
2023-05-22T21:09:29.168Z,98800.16
2023-05-22T21:12:15.654Z,98801.97
2023-05-22T21:15:01.900Z,98809.59
2023-05-22T21:17:48.442Z,98802.69
2023-05-22T21:20:34.936Z,98806.22
2023-05-22T21:23:23.161Z,98801.91
2023-05-22T21:26:11.124Z,98802.06
2023-05-22T21:28:57.763Z,98819.41
2023-05-22T21:31:44.326Z,98812.78
2023-05-22T21:34:30.721Z,98824.75
2023-05-22T21:37:17.426Z,98824.09
2023-05-22T21:40:08.768Z,98815.59
2023-05-22T21:42:55.078Z,98775.47
2023-05-22T21:45:41.900Z,98812.41
2023-05-22T21:48:28.388Z,98807.34
2023-05-22T21:51:15.073Z,98812.72
2023-05-22T21:54:01.628Z,98800.72
2023-05-22T21:56:48.135Z,98811.94
2023-05-22T21:59:34.504Z,98812.97
2023-05-22T22:02:21.100Z,98818.28
2023-05-22T22:05:07.801Z,98833.81
2023-05-22T22:07:54.400Z,98832.00
2023-05-22T22:10:40.884Z,98809.75
2023-05-22T22:13:27.412Z,98820.88
2023-05-22T22:16:14.601Z,98840.72
2023-05-22T22:19:02.593Z,98838.78
2023-05-22T22:21:50.493Z,98843.09
2023-05-22T22:24:37.087Z,98843.09
2023-05-22T22:27:24.312Z,98828.47
2023-05-22T22:30:11.159Z,98851.03
2023-05-22T22:32:57.669Z,98844.84
2023-05-22T22:35:44.201Z,98840.59
2023-05-22T22:38:35.117Z,98833.91
2023-05-22T22:41:21.385Z,98857.22
2023-05-22T22:44:08.097Z,98844.41
2023-05-22T22:46:55.658Z,98857.22
2023-05-22T22:49:42.405Z,98858.19
2023-05-22T22:52:28.750Z,98848.88
2023-05-22T22:55:15.260Z,98841.16
2023-05-22T22:58:02.055Z,98867.06
2023-05-22T23:00:48.532Z,98860.84
2023-05-22T23:03:35.007Z,98860.03
2023-05-22T23:06:24.209Z,98855.69
2023-05-22T23:09:11.399Z,98855.81
2023-05-22T23:11:57.802Z,98823.94
2023-05-22T23:14:44.778Z,98856.47
2023-05-22T23:17:31.460Z,98846.84
2023-05-22T23:20:18.010Z,98845.19
2023-05-22T23:23:04.514Z,98861.41
2023-05-22T23:25:51.912Z,98838.72
2023-05-22T23:28:38.232Z,98856.69
2023-05-22T23:31:26.052Z,98863.88
2023-05-22T23:34:12.485Z,98857.03
2023-05-22T23:36:59.070Z,98859.63
2023-05-22T23:39:45.418Z,98875.28
2023-05-22T23:42:32.693Z,98862.25
2023-05-22T23:45:19.292Z,98871.88
2023-05-22T23:48:05.641Z,98875.94
2023-05-22T23:50:52.242Z,98878.72
2023-05-22T23:53:38.718Z,98882.97
2023-05-22T23:56:26.476Z,98870.84
2023-05-22T23:59:13.106Z,98874.97
